createdAt,value
2022-10-10T09:01:28.069Z,3.00
2022-10-10T09:05:46.425Z,2.20
2022-10-10T09:10:03.753Z,2.50
2022-10-10T09:14:18.694Z,2.40
2022-10-10T09:18:32.733Z,2.70
2022-10-10T09:22:45.669Z,2.93
2022-10-10T09:26:52.770Z,2.70
2022-10-10T09:31:00.791Z,2.80
2022-10-10T09:35:14.464Z,2.50
2022-10-10T09:39:28.526Z,2.67
2022-10-10T09:43:34.589Z,2.70
2022-10-10T09:47:37.969Z,2.80
2022-10-10T09:51:44.860Z,2.73
2022-10-10T09:55:50.982Z,4.00
2022-10-10T09:59:55.565Z,3.50
2022-10-10T10:04:29.248Z,4.00
2022-10-10T10:08:35.347Z,3.70
2022-10-10T10:12:43.070Z,4.60
2022-10-10T10:16:46.456Z,3.73
2022-10-10T10:20:51.754Z,3.60
2022-10-10T10:24:55.527Z,4.30
2022-10-10T10:29:00.344Z,4.00
2022-10-10T10:33:13.542Z,4.90
2022-10-10T10:37:32.128Z,4.73
2022-10-10T10:41:40.022Z,5.13
2022-10-10T10:45:54.874Z,4.23
2022-10-10T10:50:12.986Z,4.67
2022-10-10T10:54:40.519Z,4.00
2022-10-10T11:05:21.994Z,4.50
2022-10-10T11:08:42.255Z,4.40
2022-10-10T11:12:56.156Z,3.50
2022-10-10T11:17:05.078Z,4.47
2022-10-10T11:21:14.160Z,4.30
2022-10-10T11:25:24.529Z,3.60
2022-10-10T11:29:31.479Z,4.70
2022-10-10T11:33:39.860Z,4.93
2022-10-10T11:37:48.976Z,4.23
2022-10-10T11:41:56.733Z,5.40
2022-10-10T11:46:09.974Z,5.87
2022-10-10T11:50:19.116Z,5.27
2022-10-10T11:54:32.698Z,5.90
2022-10-10T11:58:39.083Z,4.63
2022-10-10T12:02:43.831Z,5.17
2022-10-10T12:06:52.264Z,5.37
2022-10-10T12:11:02.070Z,5.83
2022-10-10T12:15:10.319Z,5.83
2022-10-10T12:19:19.762Z,4.73
2022-10-10T12:23:29.210Z,5.03
2022-10-10T12:27:46.488Z,5.77
2022-10-10T12:32:25.421Z,5.33
2022-10-10T12:37:01.189Z,5.67
2022-10-10T12:41:15.466Z,5.87
2022-10-10T12:45:57.998Z,5.57
2022-10-10T12:50:03.641Z,6.10
2022-10-10T12:54:08.597Z,5.70
2022-10-10T12:58:26.613Z,4.67
2022-10-10T13:02:32.630Z,6.60
2022-10-10T13:06:39.301Z,6.80
2022-10-10T13:10:42.669Z,5.73
2022-10-10T13:14:46.725Z,5.73
2022-10-10T13:18:54.031Z,5.23
2022-10-10T13:22:58.209Z,5.37
2022-10-10T13:27:02.852Z,5.20
2022-10-10T13:31:11.631Z,5.13
2022-10-10T13:35:21.184Z,6.50
2022-10-10T13:39:25.168Z,6.60
2022-10-10T13:43:28.773Z,6.90
2022-10-10T13:47:47.978Z,7.37
2022-10-10T13:52:04.053Z,7.33
2022-10-10T13:56:14.457Z,5.40
2022-10-10T14:00:20.025Z,8.80
2022-10-10T14:04:27.297Z,6.43
2022-10-10T14:08:35.336Z,7.23
2022-10-10T14:12:45.264Z,7.97
2022-10-10T14:16:59.090Z,7.73
2022-10-10T14:21:02.538Z,7.80
2022-10-10T14:25:08.463Z,8.63
2022-10-10T14:29:14.336Z,6.70
2022-10-10T14:33:19.267Z,9.47
2022-10-10T14:37:25.764Z,7.60
2022-10-10T14:41:30.448Z,7.40
2022-10-10T14:45:34.365Z,6.70
2022-10-10T14:49:37.716Z,7.30
2022-10-10T14:53:41.489Z,7.90
2022-10-10T14:57:46.176Z,8.10
2022-10-10T15:01:50.052Z,8.80
2022-10-10T15:05:53.332Z,8.10
2022-10-10T15:14:21.500Z,8.60
2022-10-10T15:18:52.719Z,8.30
2022-10-10T15:22:48.183Z,9.97
2022-10-10T15:26:51.444Z,9.30
2022-10-10T15:30:56.141Z,8.30
2022-10-10T15:34:59.406Z,8.20
2022-10-10T15:39:02.775Z,9.57
2022-10-10T15:43:09.743Z,9.27
2022-10-10T15:47:15.536Z,9.00
2022-10-10T15:51:19.314Z,9.57
2022-10-10T15:55:22.842Z,9.57
2022-10-10T15:59:26.501Z,9.17
2022-10-10T16:03:31.194Z,9.77
2022-10-10T16:07:40.740Z,7.73
2022-10-10T16:11:47.618Z,8.37
2022-10-10T16:15:58.410Z,8.70
2022-10-10T16:20:03.371Z,9.47
2022-10-10T16:24:07.838Z,9.07
2022-10-10T16:28:11.379Z,8.83
2022-10-10T16:32:15.277Z,9.17
2022-10-10T16:36:22.869Z,9.17
2022-10-10T16:40:26.528Z,9.67
2022-10-10T16:44:29.981Z,8.50
2022-10-10T16:48:34.996Z,9.87
2022-10-10T16:52:41.248Z,9.70
2022-10-10T16:56:45.080Z,10.23
2022-10-10T17:01:10.282Z,10.60
2022-10-10T17:05:14.386Z,11.97
2022-10-10T17:09:19.412Z,10.87
2022-10-10T17:13:23.690Z,10.60
2022-10-10T17:17:27.249Z,11.07
2022-10-10T17:21:42.220Z,11.30
2022-10-10T17:25:48.624Z,13.07
2022-10-10T17:29:54.282Z,12.77
2022-10-10T17:33:59.016Z,13.03
2022-10-10T17:38:21.213Z,12.10
2022-10-10T17:42:28.050Z,11.53
2022-10-10T17:46:35.819Z,14.93
2022-10-10T17:50:49.539Z,16.30
2022-10-10T17:54:53.290Z,15.80
2022-10-10T17:58:59.688Z,15.60
2022-10-10T18:03:06.775Z,16.50
2022-10-10T18:07:13.262Z,15.97
2022-10-10T18:11:18.276Z,15.97
2022-10-10T18:15:23.195Z,14.37
2022-10-10T18:19:54.251Z,15.57
2022-10-10T18:24:00.875Z,15.50
2022-10-10T18:28:04.349Z,14.90
2022-10-10T18:32:28.073Z,15.03
2022-10-10T18:36:33.990Z,15.67
2022-10-10T18:40:37.874Z,15.67
2022-10-10T18:44:41.783Z,17.50
2022-10-10T18:48:50.232Z,15.60
2022-10-10T18:52:58.571Z,17.43
2022-10-10T18:57:02.522Z,15.27
2022-10-10T19:01:09.205Z,15.17
2022-10-10T19:05:14.138Z,15.10
2022-10-10T19:09:19.369Z,16.23
2022-10-10T19:13:23.224Z,15.23
2022-10-10T19:17:27.988Z,15.60
2022-10-10T19:21:37.323Z,15.07
2022-10-10T19:25:41.884Z,14.60
2022-10-10T19:29:45.184Z,13.33
2022-10-10T19:33:53.057Z,13.40
2022-10-10T19:37:57.783Z,15.17
2022-10-10T19:42:01.142Z,13.57
2022-10-10T19:46:07.295Z,15.37
2022-10-10T19:50:10.883Z,15.37
2022-10-10T19:54:15.663Z,16.10
2022-10-10T19:58:19.150Z,14.80
2022-10-10T20:02:22.492Z,14.40
2022-10-10T20:06:26.128Z,14.03
2022-10-10T20:10:30.906Z,14.77
2022-10-10T20:14:34.441Z,15.50
2022-10-10T20:18:39.619Z,13.77
2022-10-10T20:22:44.718Z,13.27
2022-10-10T20:26:49.414Z,14.63
2022-10-10T20:30:53.245Z,15.70
2022-10-10T20:34:56.574Z,13.40
2022-10-10T20:39:01.774Z,13.43
2022-10-10T20:43:06.593Z,14.93
2022-10-10T20:47:09.853Z,15.30
2022-10-10T20:51:14.490Z,14.80
2022-10-10T20:55:17.964Z,13.80
2022-10-10T20:59:24.647Z,14.70
2022-10-10T21:03:27.992Z,15.03
2022-10-10T21:07:31.271Z,16.67
2022-10-10T21:11:35.241Z,16.10
2022-10-10T21:15:44.473Z,15.70
2022-10-10T21:19:47.757Z,15.53
2022-10-10T21:23:55.777Z,14.43
2022-10-10T21:27:59.595Z,14.57
2022-10-10T21:32:04.424Z,14.60
2022-10-10T21:36:08.206Z,14.10
2022-10-10T21:40:12.815Z,15.00
2022-10-10T21:44:17.045Z,15.10
2022-10-10T21:48:21.707Z,14.73
2022-10-10T21:52:25.160Z,14.67
2022-10-10T21:56:28.453Z,15.40
2022-10-10T22:00:31.811Z,14.10
2022-10-10T22:04:36.523Z,15.60
2022-10-10T22:08:42.097Z,14.50
2022-10-10T22:12:46.661Z,14.73
2022-10-10T22:16:49.984Z,15.73
2022-10-10T22:20:55.000Z,13.70
2022-10-10T22:24:58.298Z,14.30
2022-10-10T22:29:01.664Z,14.63
2022-10-10T22:33:04.977Z,13.77
2022-10-10T22:37:09.732Z,14.33
2022-10-10T22:41:13.990Z,15.33
2022-10-10T22:45:17.603Z,14.97
2022-10-10T22:49:20.910Z,14.50
2022-10-10T22:53:25.651Z,14.80
2022-10-10T22:57:29.533Z,18.00
2022-10-10T23:01:32.973Z,15.93
2022-10-10T23:05:36.352Z,16.00
2022-10-10T23:09:41.144Z,16.47
2022-10-10T23:13:44.453Z,15.70
2022-10-10T23:17:47.756Z,16.57
2022-10-10T23:21:51.182Z,15.50
2022-10-10T23:25:56.120Z,16.93
2022-10-10T23:29:59.424Z,16.23
2022-10-10T23:34:02.804Z,16.90
2022-10-10T23:38:06.578Z,15.50
2022-10-10T23:42:11.358Z,15.37
2022-10-10T23:46:15.264Z,17.07
2022-10-10T23:50:18.946Z,16.57
2022-10-10T23:54:22.258Z,16.17
2022-10-10T23:58:27.094Z,16.07
